PWSweather.com
Personal Weather Stations
Station Observations
NEWFAL01
Newton Falls, OH 44444

Newton Falls, OH 44444

Lat: 41.19902, Lon: -80.97668

Elevation: 920

Station Type: Vantage Pro 2

http://www.mvweathercenter.com

High Low Average
Temperature 40.0°F4.4°C 9.1°F-12.7°C 25.7°F-3.5°C
Dew Point 30.9°F-0.6°C 4.7°F-15.2°C 15.3°F-9.3°C
Winds 8.1 mph 13.0 kmh Calm Calm 1.0 mph NW1.6 kmh NW
Wind Gusts 16.1 mph25.9 kmh -- 2.0 mph3.2 kmh
Humidity 84% 38% 67%
Pressure 30.83 in1044.0 mb 30.34 in1027.4 mb -
Precipitation 0.01 in0.3 mm - -
Hour Temp Dew Point Humidity Winds Wind Gusts Pressure Precip Precip Rate Daily Precip Total
12:00 AM 15.8°F-9.0°C 10.2°F-12.1°C 78% Calm Calm -- 30.83 in1044.0 mb - 0.00 in0.0 mm 0.00 in0.0 mm
12:10 AM 15.5°F-9.2°C 10.2°F-12.1°C 79% Calm Calm -- 30.83 in1044.0 mb - 0.00 in0.0 mm 0.00 in0.0 mm
12:15 AM 15.5°F-9.2°C 10.1°F-12.2°C 79% Calm Calm -- 30.83 in1044.0 mb - 0.00 in0.0 mm 0.00 in0.0 mm
12:20 AM 15.4°F-9.2°C 10.1°F-12.2°C 79% Calm Calm -- 30.83 in1044.0 mb - 0.00 in0.0 mm 0.00 in0.0 mm
12:25 AM 15.3°F-9.3°C 10.0°F-12.2°C 79% Calm Calm -- 30.83 in1044.0 mb - 0.00 in0.0 mm 0.00 in0.0 mm
12:30 AM 15.2°F-9.3°C 9.9°F-12.3°C 79% Calm Calm -- 30.83 in1044.0 mb - 0.00 in0.0 mm 0.00 in0.0 mm
12:35 AM 15.0°F-9.4°C 9.7°F-12.4°C 79% Calm Calm -- 30.83 in1044.0 mb - 0.00 in0.0 mm 0.00 in0.0 mm
12:40 AM 14.9°F-9.5°C 9.9°F-12.3°C 80% Calm Calm -- 30.83 in1044.0 mb - 0.00 in0.0 mm 0.00 in0.0 mm
12:45 AM 14.9°F-9.5°C 9.8°F-12.3°C 80% Calm Calm -- 30.83 in1044.0 mb - 0.00 in0.0 mm 0.00 in0.0 mm
12:50 AM 14.8°F-9.6°C 9.7°F-12.4°C 80% Calm Calm -- 30.83 in1044.0 mb - 0.00 in0.0 mm 0.00 in0.0 mm
12:55 AM 14.7°F-9.6°C 9.6°F-12.4°C 80% Calm Calm -- 30.83 in1044.0 mb - 0.00 in0.0 mm 0.00 in0.0 mm
01:00 AM 14.5°F-9.7°C 9.5°F-12.5°C 80% Calm Calm -- 30.83 in1044.0 mb - 0.00 in0.0 mm 0.00 in0.0 mm
01:10 AM 14.3°F-9.8°C 9.3°F-12.6°C 80% Calm Calm -- 30.83 in1044.0 mb - 0.00 in0.0 mm 0.00 in0.0 mm
01:15 AM 14.1°F-9.9°C 9.1°F-12.7°C 80% Calm Calm -- 30.83 in1044.0 mb - 0.00 in0.0 mm 0.00 in0.0 mm
01:20 AM 14.0°F-10.0°C 9.0°F-12.8°C 80% Calm Calm -- 30.82 in1043.7 mb - 0.00 in0.0 mm 0.00 in0.0 mm
01:25 AM 13.8°F-10.1°C 8.8°F-12.9°C 80% Calm Calm -- 30.82 in1043.7 mb - 0.00 in0.0 mm 0.00 in0.0 mm
01:30 AM 13.7°F-10.2°C 8.7°F-12.9°C 80% Calm Calm -- 30.82 in1043.7 mb - 0.00 in0.0 mm 0.00 in0.0 mm
01:35 AM 13.5°F-10.3°C 8.5°F-13.1°C 80% Calm Calm -- 30.82 in1043.7 mb - 0.00 in0.0 mm 0.00 in0.0 mm
01:40 AM 13.4°F-10.3°C 8.4°F-13.1°C 80% Calm Calm -- 30.82 in1043.7 mb - 0.00 in0.0 mm 0.00 in0.0 mm
01:45 AM 13.4°F-10.3°C 8.7°F-12.9°C 81% Calm Calm -- 30.82 in1043.7 mb - 0.00 in0.0 mm 0.00 in0.0 mm
01:50 AM 13.3°F-10.4°C 8.6°F-13.0°C 81% Calm Calm -- 30.82 in1043.7 mb - 0.00 in0.0 mm 0.00 in0.0 mm
01:55 AM 13.3°F-10.4°C 8.6°F-13.0°C 81% Calm Calm -- 30.82 in1043.7 mb - 0.00 in0.0 mm 0.00 in0.0 mm
02:00 AM 13.2°F-10.4°C 8.5°F-13.1°C 81% Calm Calm -- 30.81 in1043.3 mb - 0.00 in0.0 mm 0.00 in0.0 mm
02:10 AM 13.0°F-10.6°C 8.2°F-13.2°C 81% Calm Calm -- 30.82 in1043.7 mb - 0.00 in0.0 mm 0.00 in0.0 mm
02:15 AM 12.8°F-10.7°C 8.1°F-13.3°C 81% Calm Calm -- 30.82 in1043.7 mb - 0.00 in0.0 mm 0.00 in0.0 mm
02:20 AM 12.9°F-10.6°C 8.4°F-13.1°C 82% Calm Calm -- 30.82 in1043.7 mb - 0.00 in0.0 mm 0.00 in0.0 mm
02:25 AM 12.9°F-10.6°C 8.4°F-13.1°C 82% Calm Calm -- 30.81 in1043.3 mb - 0.00 in0.0 mm 0.00 in0.0 mm
02:30 AM 12.8°F-10.7°C 8.1°F-13.3°C 81% Calm Calm -- 30.81 in1043.3 mb - 0.00 in0.0 mm 0.00 in0.0 mm
02:35 AM 12.7°F-10.7°C 8.2°F-13.2°C 82% Calm Calm -- 30.81 in1043.3 mb - 0.00 in0.0 mm 0.00 in0.0 mm
02:40 AM 12.6°F-10.8°C 8.1°F-13.3°C 82% Calm Calm -- 30.80 in1043.0 mb - 0.00 in0.0 mm 0.00 in0.0 mm
02:45 AM 12.5°F-10.8°C 7.8°F-13.4°C 81% Calm Calm -- 30.80 in1043.0 mb - 0.00 in0.0 mm 0.00 in0.0 mm
02:50 AM 12.4°F-10.9°C 8.0°F-13.3°C 82% Calm Calm -- 30.80 in1043.0 mb - 0.00 in0.0 mm 0.00 in0.0 mm
02:55 AM 12.4°F-10.9°C 8.0°F-13.3°C 82% Calm Calm -- 30.80 in1043.0 mb - 0.00 in0.0 mm 0.00 in0.0 mm
03:00 AM 12.4°F-10.9°C 8.0°F-13.3°C 82% Calm Calm -- 30.80 in1043.0 mb - 0.00 in0.0 mm 0.00 in0.0 mm
03:10 AM 12.6°F-10.8°C 8.2°F-13.2°C 82% Calm Calm -- 30.80 in1043.0 mb - 0.00 in0.0 mm 0.00 in0.0 mm
03:15 AM 12.7°F-10.7°C 8.2°F-13.2°C 82% Calm Calm -- 30.80 in1043.0 mb - 0.00 in0.0 mm 0.00 in0.0 mm
03:20 AM 12.6°F-10.8°C 8.1°F-13.3°C 82% Calm Calm -- 30.80 in1043.0 mb - 0.00 in0.0 mm 0.00 in0.0 mm
03:25 AM 12.6°F-10.8°C 8.1°F-13.3°C 82% Calm Calm -- 30.80 in1043.0 mb - 0.00 in0.0 mm 0.00 in0.0 mm
03:30 AM 12.5°F-10.8°C 8.0°F-13.3°C 82% Calm Calm -- 30.80 in1043.0 mb - 0.00 in0.0 mm 0.00 in0.0 mm
03:35 AM 12.4°F-10.9°C 8.0°F-13.3°C 82% Calm Calm -- 30.80 in1043.0 mb - 0.00 in0.0 mm 0.00 in0.0 mm
03:40 AM 12.3°F-10.9°C 7.9°F-13.4°C 82% Calm Calm -- 30.81 in1043.3 mb - 0.00 in0.0 mm 0.00 in0.0 mm
03:45 AM 12.3°F-10.9°C 7.9°F-13.4°C 82% Calm Calm -- 30.80 in1043.0 mb - 0.00 in0.0 mm 0.00 in0.0 mm
03:50 AM 12.3°F-10.9°C 7.9°F-13.4°C 82% Calm Calm -- 30.80 in1043.0 mb - 0.00 in0.0 mm 0.00 in0.0 mm
03:55 AM 12.3°F-10.9°C 7.9°F-13.4°C 82% Calm Calm -- 30.80 in1043.0 mb - 0.00 in0.0 mm 0.00 in0.0 mm
04:00 AM 12.2°F-11.0°C 7.8°F-13.4°C 82% Calm Calm -- 30.80 in1043.0 mb - 0.00 in0.0 mm 0.00 in0.0 mm
04:10 AM 12.0°F-11.1°C 7.6°F-13.6°C 82% Calm Calm -- 30.81 in1043.3 mb - 0.00 in0.0 mm 0.00 in0.0 mm
04:15 AM 11.8°F-11.2°C 7.4°F-13.7°C 82% Calm Calm -- 30.81 in1043.3 mb - 0.00 in0.0 mm 0.00 in0.0 mm
04:20 AM 11.6°F-11.3°C 7.2°F-13.8°C 82% Calm Calm -- 30.80 in1043.0 mb - 0.00 in0.0 mm 0.00 in0.0 mm
04:25 AM 11.4°F-11.4°C 7.0°F-13.9°C 82% Calm Calm -- 30.80 in1043.0 mb - 0.00 in0.0 mm 0.00 in0.0 mm
04:30 AM 11.2°F-11.6°C 6.8°F-14.0°C 82% Calm Calm -- 30.80 in1043.0 mb - 0.00 in0.0 mm 0.00 in0.0 mm
04:35 AM 11.1°F-11.6°C 6.7°F-14.1°C 82% Calm Calm -- 30.81 in1043.3 mb - 0.00 in0.0 mm 0.00 in0.0 mm
04:40 AM 11.0°F-11.7°C 6.6°F-14.1°C 82% Calm Calm -- 30.81 in1043.3 mb - 0.00 in0.0 mm 0.00 in0.0 mm
04:45 AM 10.9°F-11.7°C 6.5°F-14.2°C 82% Calm Calm -- 30.81 in1043.3 mb - 0.00 in0.0 mm 0.00 in0.0 mm
04:50 AM 10.9°F-11.7°C 6.5°F-14.2°C 82% Calm Calm -- 30.81 in1043.3 mb - 0.00 in0.0 mm 0.00 in0.0 mm
04:55 AM 10.9°F-11.7°C 6.5°F-14.2°C 82% Calm Calm -- 30.81 in1043.3 mb - 0.00 in0.0 mm 0.00 in0.0 mm
05:00 AM 10.9°F-11.7°C 6.5°F-14.2°C 82% Calm Calm -- 30.81 in1043.3 mb - 0.00 in0.0 mm 0.00 in0.0 mm
05:10 AM 10.9°F-11.7°C 6.5°F-14.2°C 82% Calm Calm -- 30.81 in1043.3 mb - 0.00 in0.0 mm 0.00 in0.0 mm
05:15 AM 10.8°F-11.8°C 6.4°F-14.2°C 82% Calm Calm -- 30.81 in1043.3 mb - 0.00 in0.0 mm 0.00 in0.0 mm
05:20 AM 10.7°F-11.8°C 6.3°F-14.3°C 82% Calm Calm -- 30.81 in1043.3 mb - 0.00 in0.0 mm 0.00 in0.0 mm
05:25 AM 10.7°F-11.8°C 6.3°F-14.3°C 82% Calm Calm -- 30.81 in1043.3 mb - 0.00 in0.0 mm 0.00 in0.0 mm
05:30 AM 10.7°F-11.8°C 6.3°F-14.3°C 82% Calm Calm -- 30.81 in1043.3 mb - 0.00 in0.0 mm 0.00 in0.0 mm
05:35 AM 10.7°F-11.8°C 6.3°F-14.3°C 82% Calm Calm -- 30.80 in1043.0 mb - 0.00 in0.0 mm 0.00 in0.0 mm
05:40 AM 10.7°F-11.8°C 6.3°F-14.3°C 82% Calm Calm -- 30.80 in1043.0 mb - 0.00 in0.0 mm 0.00 in0.0 mm
05:45 AM 10.8°F-11.8°C 6.4°F-14.2°C 82% Calm Calm -- 30.80 in1043.0 mb - 0.00 in0.0 mm 0.00 in0.0 mm
05:50 AM 10.9°F-11.7°C 6.5°F-14.2°C 82% Calm Calm -- 30.80 in1043.0 mb - 0.00 in0.0 mm 0.00 in0.0 mm
05:55 AM 10.9°F-11.7°C 6.5°F-14.2°C 82% Calm Calm -- 30.81 in1043.3 mb - 0.00 in0.0 mm 0.00 in0.0 mm
06:00 AM 10.9°F-11.7°C 6.5°F-14.2°C 82% Calm Calm -- 30.81 in1043.3 mb - 0.00 in0.0 mm 0.00 in0.0 mm
06:10 AM 10.9°F-11.7°C 6.5°F-14.2°C 82% Calm Calm -- 30.81 in1043.3 mb - 0.00 in0.0 mm 0.00 in0.0 mm
06:15 AM 10.8°F-11.8°C 6.4°F-14.2°C 82% Calm Calm -- 30.81 in1043.3 mb - 0.00 in0.0 mm 0.00 in0.0 mm
06:20 AM 10.8°F-11.8°C 6.4°F-14.2°C 82% Calm Calm -- 30.81 in1043.3 mb - 0.00 in0.0 mm 0.00 in0.0 mm
06:25 AM 10.7°F-11.8°C 6.3°F-14.3°C 82% Calm Calm -- 30.81 in1043.3 mb - 0.00 in0.0 mm 0.00 in0.0 mm
06:30 AM 10.6°F-11.9°C 6.2°F-14.3°C 82% Calm Calm -- 30.81 in1043.3 mb - 0.00 in0.0 mm 0.00 in0.0 mm
06:35 AM 10.5°F-11.9°C 6.1°F-14.4°C 82% Calm Calm -- 30.81 in1043.3 mb - 0.00 in0.0 mm 0.00 in0.0 mm
06:40 AM 10.4°F-12.0°C 6.0°F-14.4°C 82% Calm Calm -- 30.81 in1043.3 mb - 0.00 in0.0 mm 0.00 in0.0 mm
06:45 AM 10.2°F-12.1°C 5.8°F-14.6°C 82% Calm Calm -- 30.81 in1043.3 mb - 0.00 in0.0 mm 0.00 in0.0 mm
06:50 AM 10.0°F-12.2°C 5.6°F-14.7°C 82% Calm Calm -- 30.81 in1043.3 mb - 0.00 in0.0 mm 0.00 in0.0 mm
06:55 AM 9.9°F-12.3°C 5.5°F-14.7°C 82% Calm Calm -- 30.81 in1043.3 mb - 0.00 in0.0 mm 0.00 in0.0 mm
07:00 AM 9.9°F-12.3°C 5.5°F-14.7°C 82% Calm Calm -- 30.82 in1043.7 mb - 0.00 in0.0 mm 0.00 in0.0 mm
07:10 AM 9.5°F-12.5°C 5.1°F-14.9°C 82% Calm Calm -- 30.81 in1043.3 mb - 0.00 in0.0 mm 0.00 in0.0 mm
07:15 AM 9.5°F-12.5°C 5.1°F-14.9°C 82% Calm Calm -- 30.82 in1043.7 mb - 0.00 in0.0 mm 0.00 in0.0 mm
07:20 AM 9.4°F-12.6°C 5.0°F-15.0°C 82% Calm Calm -- 30.81 in1043.3 mb - 0.00 in0.0 mm 0.00 in0.0 mm
07:25 AM 9.4°F-12.6°C 5.0°F-15.0°C 82% Calm Calm -- 30.81 in1043.3 mb - 0.00 in0.0 mm 0.00 in0.0 mm
07:30 AM 9.3°F-12.6°C 4.9°F-15.1°C 82% Calm Calm -- 30.81 in1043.3 mb - 0.00 in0.0 mm 0.00 in0.0 mm
07:35 AM 9.2°F-12.7°C 4.8°F-15.1°C 82% Calm Calm -- 30.81 in1043.3 mb - 0.00 in0.0 mm 0.00 in0.0 mm
07:40 AM 9.2°F-12.7°C 4.8°F-15.1°C 82% Calm Calm -- 30.81 in1043.3 mb - 0.00 in0.0 mm 0.00 in0.0 mm
07:45 AM 9.1°F-12.7°C 4.7°F-15.2°C 82% Calm Calm -- 30.81 in1043.3 mb - 0.00 in0.0 mm 0.00 in0.0 mm
07:50 AM 9.1°F-12.7°C 4.7°F-15.2°C 82% Calm Calm -- 30.81 in1043.3 mb - 0.00 in0.0 mm 0.00 in0.0 mm
07:55 AM 9.1°F-12.7°C 4.7°F-15.2°C 82% Calm Calm -- 30.81 in1043.3 mb - 0.00 in0.0 mm 0.00 in0.0 mm
08:00 AM 9.1°F-12.7°C 4.7°F-15.2°C 82% Calm Calm 1.2 mph1.9 kmh 30.81 in1043.3 mb - 0.00 in0.0 mm 0.00 in0.0 mm
08:10 AM 9.5°F-12.5°C 5.1°F-14.9°C 82% Calm Calm -- 30.81 in1043.3 mb - 0.00 in0.0 mm 0.00 in0.0 mm
08:15 AM 9.9°F-12.3°C 5.5°F-14.7°C 82% Calm Calm -- 30.81 in1043.3 mb - 0.00 in0.0 mm 0.00 in0.0 mm
08:20 AM 10.2°F-12.1°C 5.8°F-14.6°C 82% Calm Calm -- 30.81 in1043.3 mb - 0.00 in0.0 mm 0.00 in0.0 mm
08:25 AM 10.7°F-11.8°C 6.3°F-14.3°C 82% Calm Calm -- 30.81 in1043.3 mb - 0.00 in0.0 mm 0.00 in0.0 mm
08:30 AM 11.2°F-11.6°C 7.0°F-13.9°C 83% Calm Calm -- 30.81 in1043.3 mb - 0.00 in0.0 mm 0.00 in0.0 mm
08:35 AM 11.6°F-11.3°C 7.5°F-13.6°C 83% Calm Calm -- 30.80 in1043.0 mb - 0.00 in0.0 mm 0.00 in0.0 mm
08:40 AM 12.2°F-11.0°C 8.0°F-13.3°C 83% Calm Calm -- 30.80 in1043.0 mb - 0.00 in0.0 mm 0.00 in0.0 mm
08:45 AM 12.7°F-10.7°C 8.5°F-13.1°C 83% 1.2 mph N1.9 kmh N -- 30.81 in1043.3 mb - 0.00 in0.0 mm 0.00 in0.0 mm
08:50 AM 13.2°F-10.4°C 9.0°F-12.8°C 83% Calm Calm -- 30.80 in1043.0 mb - 0.00 in0.0 mm 0.00 in0.0 mm
08:55 AM 13.7°F-10.2°C 9.5°F-12.5°C 83% Calm Calm -- 30.80 in1043.0 mb - 0.00 in0.0 mm 0.00 in0.0 mm
09:00 AM 14.1°F-9.9°C 9.9°F-12.3°C 83% Calm Calm -- 30.80 in1043.0 mb - 0.00 in0.0 mm 0.00 in0.0 mm
09:10 AM 15.0°F-9.4°C 10.5°F-11.9°C 82% Calm Calm -- 30.80 in1043.0 mb - 0.00 in0.0 mm 0.00 in0.0 mm
09:15 AM 15.6°F-9.1°C 11.1°F-11.6°C 82% Calm Calm -- 30.79 in1042.7 mb - 0.00 in0.0 mm 0.00 in0.0 mm
09:20 AM 16.3°F-8.7°C 11.7°F-11.3°C 82% Calm Calm -- 30.79 in1042.7 mb - 0.00 in0.0 mm 0.00 in0.0 mm
09:25 AM 17.0°F-8.3°C 12.4°F-10.9°C 82% Calm Calm -- 30.79 in1042.7 mb - 0.00 in0.0 mm 0.00 in0.0 mm
09:30 AM 18.0°F-7.8°C 13.4°F-10.3°C 82% 1.2 mph N1.9 kmh N 3.5 mph5.6 kmh 30.79 in1042.7 mb - 0.00 in0.0 mm 0.00 in0.0 mm
09:35 AM 18.6°F-7.4°C 13.5°F-10.3°C 80% Calm Calm -- 30.78 in1042.3 mb - 0.00 in0.0 mm 0.00 in0.0 mm
09:40 AM 19.6°F-6.9°C 15.6°F-9.1°C 84% 1.2 mph N1.9 kmh N 3.5 mph5.6 kmh 30.78 in1042.3 mb - 0.00 in0.0 mm 0.00 in0.0 mm
09:45 AM 20.4°F-6.4°C 14.9°F-9.5°C 79% 1.2 mph N1.9 kmh N 3.5 mph5.6 kmh 30.77 in1042.0 mb - 0.00 in0.0 mm 0.00 in0.0 mm
09:50 AM 21.2°F-6.0°C 15.1°F-9.4°C 77% Calm Calm -- 30.77 in1042.0 mb - 0.00 in0.0 mm 0.00 in0.0 mm
09:55 AM 21.8°F-5.7°C 15.4°F-9.2°C 76% Calm Calm 3.5 mph5.6 kmh 30.76 in1041.7 mb - 0.00 in0.0 mm 0.00 in0.0 mm
10:00 AM 22.2°F-5.4°C 15.2°F-9.3°C 74% 2.3 mph N3.7 kmh N 4.6 mph7.4 kmh 30.76 in1041.7 mb - 0.00 in0.0 mm 0.00 in0.0 mm
10:10 AM 23.2°F-4.9°C 15.5°F-9.2°C 72% Calm Calm -- 30.75 in1041.3 mb - 0.00 in0.0 mm 0.00 in0.0 mm
10:15 AM 23.8°F-4.6°C 15.8°F-9.0°C 71% 1.2 mph N1.9 kmh N 3.5 mph5.6 kmh 30.75 in1041.3 mb - 0.00 in0.0 mm 0.00 in0.0 mm
10:20 AM 24.2°F-4.3°C 15.2°F-9.3°C 68% 3.5 mph N5.6 kmh N 4.6 mph7.4 kmh 30.74 in1041.0 mb - 0.00 in0.0 mm 0.00 in0.0 mm
10:25 AM 24.6°F-4.1°C 15.6°F-9.1°C 68% Calm Calm 3.5 mph5.6 kmh 30.74 in1041.0 mb - 0.00 in0.0 mm 0.00 in0.0 mm
10:30 AM 25.0°F-3.9°C 15.6°F-9.1°C 67% Calm Calm 3.5 mph5.6 kmh 30.73 in1040.6 mb - 0.00 in0.0 mm 0.00 in0.0 mm
10:35 AM 25.6°F-3.6°C 16.1°F-8.8°C 67% Calm Calm 3.5 mph5.6 kmh 30.73 in1040.6 mb - 0.00 in0.0 mm 0.00 in0.0 mm
10:40 AM 25.8°F-3.4°C 14.9°F-9.5°C 63% Calm Calm -- 30.73 in1040.6 mb - 0.00 in0.0 mm 0.00 in0.0 mm
10:45 AM 26.1°F-3.3°C 15.6°F-9.1°C 64% 2.3 mph N3.7 kmh N 1.2 mph1.9 kmh 30.73 in1040.6 mb - 0.00 in0.0 mm 0.00 in0.0 mm
10:50 AM 26.3°F-3.2°C 15.0°F-9.4°C 62% Calm Calm 1.2 mph1.9 kmh 30.73 in1040.6 mb - 0.00 in0.0 mm 0.00 in0.0 mm
10:55 AM 26.6°F-3.0°C 14.9°F-9.5°C 61% 2.3 mph N3.7 kmh N 3.5 mph5.6 kmh 30.72 in1040.3 mb - 0.00 in0.0 mm 0.00 in0.0 mm
11:00 AM 27.0°F-2.8°C 14.9°F-9.5°C 60% 1.2 mph N1.9 kmh N 3.5 mph5.6 kmh 30.71 in1040.0 mb - 0.00 in0.0 mm 0.00 in0.0 mm
11:10 AM 27.5°F-2.5°C 15.0°F-9.4°C 59% 2.3 mph N3.7 kmh N 4.6 mph7.4 kmh 30.71 in1040.0 mb - 0.00 in0.0 mm 0.00 in0.0 mm
11:15 AM 27.9°F-2.3°C 15.4°F-9.2°C 59% 2.3 mph N3.7 kmh N 4.6 mph7.4 kmh 30.70 in1039.6 mb - 0.00 in0.0 mm 0.00 in0.0 mm
11:20 AM 28.3°F-2.1°C 15.0°F-9.4°C 57% 1.2 mph N1.9 kmh N 4.6 mph7.4 kmh 30.70 in1039.6 mb - 0.00 in0.0 mm 0.00 in0.0 mm
11:25 AM 28.6°F-1.9°C 15.3°F-9.3°C 57% 1.2 mph N1.9 kmh N 4.6 mph7.4 kmh 30.70 in1039.6 mb - 0.00 in0.0 mm 0.00 in0.0 mm
11:30 AM 28.9°F-1.7°C 14.7°F-9.6°C 55% 1.2 mph N1.9 kmh N 3.5 mph5.6 kmh 30.70 in1039.6 mb - 0.00 in0.0 mm 0.00 in0.0 mm
11:35 AM 29.1°F-1.6°C 15.3°F-9.3°C 56% 4.6 mph N7.4 kmh N 5.8 mph9.3 kmh 30.69 in1039.3 mb - 0.00 in0.0 mm 0.00 in0.0 mm
11:40 AM 29.3°F-1.5°C 15.1°F-9.4°C 55% 3.5 mph NNE5.6 kmh NNE 3.5 mph5.6 kmh 30.69 in1039.3 mb - 0.00 in0.0 mm 0.00 in0.0 mm
11:45 AM 29.6°F-1.3°C 14.9°F-9.5°C 54% Calm Calm 3.5 mph5.6 kmh 30.69 in1039.3 mb - 0.00 in0.0 mm 0.00 in0.0 mm
11:50 AM 29.8°F-1.2°C 14.7°F-9.6°C 53% 3.5 mph N5.6 kmh N 4.6 mph7.4 kmh 30.68 in1038.9 mb - 0.00 in0.0 mm 0.00 in0.0 mm
11:55 AM 30.0°F-1.1°C 14.9°F-9.5°C 53% 1.2 mph N1.9 kmh N 3.5 mph5.6 kmh 30.68 in1038.9 mb - 0.00 in0.0 mm 0.00 in0.0 mm
12:00 PM 30.3°F-0.9°C 14.7°F-9.6°C 52% 1.2 mph N1.9 kmh N 3.5 mph5.6 kmh 30.67 in1038.6 mb - 0.00 in0.0 mm 0.00 in0.0 mm
12:10 PM 31.0°F-0.6°C 15.0°F-9.4°C 51% 2.3 mph N3.7 kmh N 1.2 mph1.9 kmh 30.67 in1038.6 mb - 0.00 in0.0 mm 0.00 in0.0 mm
12:15 PM 31.2°F-0.4°C 14.7°F-9.6°C 50% Calm Calm 3.5 mph5.6 kmh 30.67 in1038.6 mb - 0.00 in0.0 mm 0.00 in0.0 mm
12:20 PM 31.5°F-0.3°C 15.0°F-9.4°C 50% 2.3 mph N3.7 kmh N 4.6 mph7.4 kmh 30.67 in1038.6 mb - 0.00 in0.0 mm 0.00 in0.0 mm
12:25 PM 31.8°F-0.1°C 15.2°F-9.3°C 50% 1.2 mph N1.9 kmh N 3.5 mph5.6 kmh 30.66 in1038.3 mb - 0.00 in0.0 mm 0.00 in0.0 mm
12:30 PM 32.0°F0.0°C 15.5°F-9.2°C 50% Calm Calm 1.2 mph1.9 kmh 30.66 in1038.3 mb - 0.00 in0.0 mm 0.00 in0.0 mm
12:35 PM 32.4°F0.2°C 15.3°F-9.3°C 49% 2.3 mph N3.7 kmh N 3.5 mph5.6 kmh 30.66 in1038.3 mb - 0.00 in0.0 mm 0.00 in0.0 mm
12:40 PM 32.6°F0.3°C 15.1°F-9.4°C 48% 1.2 mph N1.9 kmh N 1.2 mph1.9 kmh 30.65 in1037.9 mb - 0.00 in0.0 mm 0.00 in0.0 mm
12:45 PM 32.8°F0.4°C 14.8°F-9.6°C 47% 2.3 mph N3.7 kmh N 4.6 mph7.4 kmh 30.65 in1037.9 mb - 0.00 in0.0 mm 0.00 in0.0 mm
12:50 PM 33.0°F0.6°C 14.9°F-9.5°C 47% 5.8 mph N9.3 kmh N 5.8 mph9.3 kmh 30.65 in1037.9 mb - 0.00 in0.0 mm 0.00 in0.0 mm
12:55 PM 33.3°F0.7°C 14.2°F-9.9°C 45% Calm Calm 3.5 mph5.6 kmh 30.64 in1037.6 mb - 0.00 in0.0 mm 0.00 in0.0 mm
01:00 PM 33.6°F0.9°C 15.0°F-9.4°C 46% 4.6 mph N7.4 kmh N 4.6 mph7.4 kmh 30.64 in1037.6 mb - 0.00 in0.0 mm 0.00 in0.0 mm
01:10 PM 34.2°F1.2°C 15.5°F-9.2°C 46% 1.2 mph N1.9 kmh N 5.8 mph9.3 kmh 30.64 in1037.6 mb - 0.00 in0.0 mm 0.00 in0.0 mm
01:15 PM 34.4°F1.3°C 15.2°F-9.3°C 45% 1.2 mph N1.9 kmh N 1.2 mph1.9 kmh 30.63 in1037.3 mb - 0.00 in0.0 mm 0.00 in0.0 mm
01:20 PM 34.4°F1.3°C 14.2°F-9.9°C 43% 1.2 mph N1.9 kmh N 3.5 mph5.6 kmh 30.63 in1037.3 mb - 0.00 in0.0 mm 0.00 in0.0 mm
01:25 PM 34.7°F1.5°C 16.0°F-8.9°C 46% 2.3 mph N3.7 kmh N 3.5 mph5.6 kmh 30.62 in1036.9 mb - 0.00 in0.0 mm 0.00 in0.0 mm
01:30 PM 35.1°F1.7°C 15.3°F-9.3°C 44% 1.2 mph N1.9 kmh N 3.5 mph5.6 kmh 30.62 in1036.9 mb - 0.00 in0.0 mm 0.00 in0.0 mm
01:35 PM 35.4°F1.9°C 15.6°F-9.1°C 44% Calm Calm 1.2 mph1.9 kmh 30.61 in1036.6 mb - 0.00 in0.0 mm 0.00 in0.0 mm
01:40 PM 35.7°F2.1°C 15.9°F-8.9°C 44% 1.2 mph N1.9 kmh N 3.5 mph5.6 kmh 30.61 in1036.6 mb - 0.00 in0.0 mm 0.00 in0.0 mm
01:45 PM 36.0°F2.2°C 14.5°F-9.7°C 41% 1.2 mph N1.9 kmh N 4.6 mph7.4 kmh 30.61 in1036.6 mb - 0.00 in0.0 mm 0.00 in0.0 mm
01:50 PM 36.1°F2.3°C 15.2°F-9.3°C 42% Calm Calm -- 30.61 in1036.6 mb - 0.00 in0.0 mm 0.00 in0.0 mm
01:55 PM 36.4°F2.4°C 14.9°F-9.5°C 41% Calm Calm -- 30.60 in1036.2 mb - 0.00 in0.0 mm 0.00 in0.0 mm
02:00 PM 36.6°F2.6°C 14.5°F-9.7°C 40% Calm Calm 1.2 mph1.9 kmh 30.59 in1035.9 mb - 0.00 in0.0 mm 0.00 in0.0 mm
02:10 PM 37.0°F2.8°C 15.5°F-9.2°C 41% 3.5 mph N5.6 kmh N 4.6 mph7.4 kmh 30.57 in1035.2 mb - 0.00 in0.0 mm 0.00 in0.0 mm
02:15 PM 37.3°F2.9°C 15.7°F-9.1°C 41% 2.3 mph N3.7 kmh N 3.5 mph5.6 kmh 30.57 in1035.2 mb - 0.00 in0.0 mm 0.00 in0.0 mm
02:20 PM 37.5°F3.1°C 15.9°F-8.9°C 41% 1.2 mph N1.9 kmh N 1.2 mph1.9 kmh 30.57 in1035.2 mb - 0.00 in0.0 mm 0.00 in0.0 mm
02:25 PM 37.7°F3.2°C 15.5°F-9.2°C 40% 1.2 mph N1.9 kmh N 3.5 mph5.6 kmh 30.56 in1034.9 mb - 0.00 in0.0 mm 0.00 in0.0 mm
02:30 PM 37.8°F3.2°C 15.0°F-9.4°C 39% Calm Calm 1.2 mph1.9 kmh 30.56 in1034.9 mb - 0.00 in0.0 mm 0.00 in0.0 mm
02:35 PM 37.9°F3.3°C 15.7°F-9.1°C 40% Calm Calm 3.5 mph5.6 kmh 30.56 in1034.9 mb - 0.00 in0.0 mm 0.00 in0.0 mm
02:40 PM 38.0°F3.3°C 14.6°F-9.7°C 38% 1.2 mph N1.9 kmh N 4.6 mph7.4 kmh 30.55 in1034.5 mb - 0.00 in0.0 mm 0.00 in0.0 mm
02:45 PM 38.0°F3.3°C 14.6°F-9.7°C 38% Calm Calm 1.2 mph1.9 kmh 30.55 in1034.5 mb - 0.00 in0.0 mm 0.00 in0.0 mm
02:50 PM 38.1°F3.4°C 15.3°F-9.3°C 39% 1.2 mph N1.9 kmh N 4.6 mph7.4 kmh 30.55 in1034.5 mb - 0.00 in0.0 mm 0.00 in0.0 mm
02:55 PM 38.2°F3.4°C 16.0°F-8.9°C 40% 1.2 mph N1.9 kmh N 3.5 mph5.6 kmh 30.55 in1034.5 mb - 0.00 in0.0 mm 0.00 in0.0 mm
03:00 PM 38.3°F3.5°C 16.1°F-8.8°C 40% 1.2 mph N1.9 kmh N 4.6 mph7.4 kmh 30.54 in1034.2 mb - 0.00 in0.0 mm 0.00 in0.0 mm
03:10 PM 38.9°F3.8°C 16.6°F-8.6°C 40% 1.2 mph N1.9 kmh N 1.2 mph1.9 kmh 30.53 in1033.9 mb - 0.00 in0.0 mm 0.00 in0.0 mm
03:15 PM 39.2°F4.0°C 16.3°F-8.7°C 39% 1.2 mph N1.9 kmh N 3.5 mph5.6 kmh 30.53 in1033.9 mb - 0.00 in0.0 mm 0.00 in0.0 mm
03:20 PM 39.4°F4.1°C 17.0°F-8.3°C 40% 2.3 mph N3.7 kmh N 5.8 mph9.3 kmh 30.52 in1033.5 mb - 0.00 in0.0 mm 0.00 in0.0 mm
03:25 PM 39.6°F4.2°C 17.8°F-7.9°C 41% 1.2 mph N1.9 kmh N 3.5 mph5.6 kmh 30.52 in1033.5 mb - 0.00 in0.0 mm 0.00 in0.0 mm
03:30 PM 39.7°F4.3°C 17.3°F-8.2°C 40% 1.2 mph N1.9 kmh N 3.5 mph5.6 kmh 30.52 in1033.5 mb - 0.00 in0.0 mm 0.00 in0.0 mm
03:35 PM 39.8°F4.3°C 17.4°F-8.1°C 40% 1.2 mph N1.9 kmh N 1.2 mph1.9 kmh 30.52 in1033.5 mb - 0.00 in0.0 mm 0.00 in0.0 mm
03:40 PM 39.9°F4.4°C 17.5°F-8.1°C 40% Calm Calm 1.2 mph1.9 kmh 30.52 in1033.5 mb - 0.00 in0.0 mm 0.00 in0.0 mm
03:45 PM 40.0°F4.4°C 17.0°F-8.3°C 39% 6.9 mph N11.1 kmh N 15.0 mph24.1 kmh 30.52 in1033.5 mb - 0.00 in0.0 mm 0.00 in0.0 mm
03:50 PM 40.0°F4.4°C 17.0°F-8.3°C 39% 4.6 mph N7.4 kmh N 9.2 mph14.8 kmh 30.52 in1033.5 mb - 0.00 in0.0 mm 0.00 in0.0 mm
03:55 PM 39.9°F4.4°C 17.5°F-8.1°C 40% 1.2 mph N1.9 kmh N 3.5 mph5.6 kmh 30.52 in1033.5 mb - 0.00 in0.0 mm 0.00 in0.0 mm
04:00 PM 39.9°F4.4°C 17.5°F-8.1°C 40% 5.8 mph N9.3 kmh N 4.6 mph7.4 kmh 30.52 in1033.5 mb - 0.00 in0.0 mm 0.00 in0.0 mm
04:10 PM 39.9°F4.4°C 18.1°F-7.7°C 41% 3.5 mph N5.6 kmh N 8.1 mph13.0 kmh 30.52 in1033.5 mb - 0.00 in0.0 mm 0.00 in0.0 mm
04:15 PM 39.9°F4.4°C 18.1°F-7.7°C 41% 1.2 mph N1.9 kmh N 4.6 mph7.4 kmh 30.52 in1033.5 mb - 0.00 in0.0 mm 0.00 in0.0 mm
04:20 PM 39.9°F4.4°C 18.6°F-7.4°C 42% 3.5 mph N5.6 kmh N 3.5 mph5.6 kmh 30.52 in1033.5 mb - 0.00 in0.0 mm 0.00 in0.0 mm
04:25 PM 39.8°F4.3°C 18.6°F-7.4°C 42% 4.6 mph N7.4 kmh N 5.8 mph9.3 kmh 30.52 in1033.5 mb - 0.00 in0.0 mm 0.00 in0.0 mm
04:30 PM 39.8°F4.3°C 19.6°F-6.9°C 44% 4.6 mph N7.4 kmh N 5.8 mph9.3 kmh 30.52 in1033.5 mb - 0.00 in0.0 mm 0.00 in0.0 mm
04:35 PM 39.6°F4.2°C 20.0°F-6.7°C 45% 4.6 mph N7.4 kmh N 4.6 mph7.4 kmh 30.52 in1033.5 mb - 0.00 in0.0 mm 0.00 in0.0 mm
04:40 PM 39.6°F4.2°C 20.0°F-6.7°C 45% 4.6 mph N7.4 kmh N 5.8 mph9.3 kmh 30.53 in1033.9 mb - 0.00 in0.0 mm 0.00 in0.0 mm
04:45 PM 39.5°F4.2°C 19.9°F-6.7°C 45% 4.6 mph N7.4 kmh N 8.1 mph13.0 kmh 30.52 in1033.5 mb - 0.00 in0.0 mm 0.00 in0.0 mm
04:50 PM 39.4°F4.1°C 20.3°F-6.5°C 46% 1.2 mph N1.9 kmh N 4.6 mph7.4 kmh 30.52 in1033.5 mb - 0.00 in0.0 mm 0.00 in0.0 mm
04:55 PM 39.2°F4.0°C 19.6°F-6.9°C 45% 6.9 mph N11.1 kmh N 10.4 mph16.7 kmh 30.52 in1033.5 mb - 0.00 in0.0 mm 0.00 in0.0 mm
05:00 PM 39.0°F3.9°C 19.5°F-6.9°C 45% 5.8 mph N9.3 kmh N 5.8 mph9.3 kmh 30.52 in1033.5 mb - 0.00 in0.0 mm 0.00 in0.0 mm
05:10 PM 38.5°F3.6°C 20.0°F-6.7°C 47% 3.5 mph N5.6 kmh N 9.2 mph14.8 kmh 30.52 in1033.5 mb - 0.00 in0.0 mm 0.00 in0.0 mm
05:15 PM 38.2°F3.4°C 20.2°F-6.6°C 48% 1.2 mph N1.9 kmh N 3.5 mph5.6 kmh 30.52 in1033.5 mb - 0.00 in0.0 mm 0.00 in0.0 mm
05:20 PM 38.0°F3.3°C 20.0°F-6.7°C 48% 1.2 mph N1.9 kmh N 3.5 mph5.6 kmh 30.51 in1033.2 mb - 0.00 in0.0 mm 0.00 in0.0 mm
05:25 PM 37.9°F3.3°C 19.9°F-6.7°C 48% 3.5 mph N5.6 kmh N 5.8 mph9.3 kmh 30.50 in1032.8 mb - 0.00 in0.0 mm 0.00 in0.0 mm
05:30 PM 37.8°F3.2°C 20.8°F-6.2°C 50% 1.2 mph N1.9 kmh N 5.8 mph9.3 kmh 30.50 in1032.8 mb - 0.00 in0.0 mm 0.00 in0.0 mm
05:35 PM 37.8°F3.2°C 20.8°F-6.2°C 50% Calm Calm 1.2 mph1.9 kmh 30.50 in1032.8 mb - 0.00 in0.0 mm 0.00 in0.0 mm
05:40 PM 37.7°F3.2°C 21.2°F-6.0°C 51% Calm Calm -- 30.49 in1032.5 mb - 0.00 in0.0 mm 0.00 in0.0 mm
05:45 PM 37.5°F3.1°C 21.0°F-6.1°C 51% Calm Calm -- 30.49 in1032.5 mb - 0.00 in0.0 mm 0.00 in0.0 mm
05:50 PM 37.4°F3.0°C 21.4°F-5.9°C 52% Calm Calm -- 30.50 in1032.8 mb - 0.00 in0.0 mm 0.00 in0.0 mm
05:55 PM 37.3°F2.9°C 21.3°F-5.9°C 52% Calm Calm -- 30.50 in1032.8 mb - 0.00 in0.0 mm 0.00 in0.0 mm
06:00 PM 37.2°F2.9°C 21.2°F-6.0°C 52% Calm Calm -- 30.50 in1032.8 mb - 0.00 in0.0 mm 0.00 in0.0 mm
06:10 PM 37.0°F2.8°C 21.4°F-5.9°C 53% Calm Calm -- 30.50 in1032.8 mb - 0.00 in0.0 mm 0.00 in0.0 mm
06:15 PM 36.9°F2.7°C 21.3°F-5.9°C 53% Calm Calm -- 30.49 in1032.5 mb - 0.00 in0.0 mm 0.00 in0.0 mm
06:20 PM 36.8°F2.7°C 21.7°F-5.7°C 54% Calm Calm -- 30.50 in1032.8 mb - 0.00 in0.0 mm 0.00 in0.0 mm
06:30 PM 36.6°F2.6°C 22.3°F-5.4°C 56% Calm Calm -- 30.50 in1032.8 mb - 0.00 in0.0 mm 0.00 in0.0 mm
06:35 PM 36.4°F2.4°C 22.2°F-5.4°C 56% Calm Calm -- 30.50 in1032.8 mb - 0.00 in0.0 mm 0.00 in0.0 mm
06:40 PM 36.3°F2.4°C 21.7°F-5.7°C 55% Calm Calm -- 30.50 in1032.8 mb - 0.00 in0.0 mm 0.00 in0.0 mm
06:45 PM 36.2°F2.3°C 21.1°F-6.1°C 54% Calm Calm -- 30.49 in1032.5 mb - 0.00 in0.0 mm 0.00 in0.0 mm
06:50 PM 36.1°F2.3°C 22.3°F-5.4°C 57% Calm Calm -- 30.49 in1032.5 mb - 0.00 in0.0 mm 0.00 in0.0 mm
06:55 PM 36.0°F2.2°C 22.2°F-5.4°C 57% Calm Calm -- 30.49 in1032.5 mb - 0.00 in0.0 mm 0.00 in0.0 mm
07:00 PM 35.9°F2.2°C 22.5°F-5.3°C 58% Calm Calm -- 30.49 in1032.5 mb - 0.00 in0.0 mm 0.00 in0.0 mm
07:10 PM 35.7°F2.1°C 22.8°F-5.1°C 59% Calm Calm -- 30.48 in1032.2 mb - 0.00 in0.0 mm 0.00 in0.0 mm
07:15 PM 35.7°F2.1°C 23.2°F-4.9°C 60% Calm Calm -- 30.48 in1032.2 mb - 0.00 in0.0 mm 0.00 in0.0 mm
07:20 PM 35.6°F2.0°C 23.0°F-5.0°C 60% Calm Calm -- 30.48 in1032.2 mb - 0.00 in0.0 mm 0.00 in0.0 mm
07:25 PM 35.4°F1.9°C 22.5°F-5.3°C 59% Calm Calm -- 30.47 in1031.8 mb - 0.00 in0.0 mm 0.00 in0.0 mm
07:30 PM 35.3°F1.8°C 22.8°F-5.1°C 60% Calm Calm -- 30.47 in1031.8 mb - 0.00 in0.0 mm 0.00 in0.0 mm
07:35 PM 35.3°F1.8°C 22.8°F-5.1°C 60% Calm Calm -- 30.46 in1031.5 mb - 0.00 in0.0 mm 0.00 in0.0 mm
07:40 PM 35.3°F1.8°C 23.6°F-4.7°C 62% Calm Calm 1.2 mph1.9 kmh 30.45 in1031.2 mb - 0.00 in0.0 mm 0.00 in0.0 mm
07:45 PM 35.3°F1.8°C 23.6°F-4.7°C 62% Calm Calm 3.5 mph5.6 kmh 30.47 in1031.8 mb - 0.00 in0.0 mm 0.00 in0.0 mm
07:50 PM 35.3°F1.8°C 23.6°F-4.7°C 62% 1.2 mph N1.9 kmh N 3.5 mph5.6 kmh 30.46 in1031.5 mb - 0.00 in0.0 mm 0.00 in0.0 mm
07:55 PM 35.4°F1.9°C 23.3°F-4.8°C 61% Calm Calm -- 30.45 in1031.2 mb - 0.00 in0.0 mm 0.00 in0.0 mm
08:00 PM 35.5°F1.9°C 23.4°F-4.8°C 61% Calm Calm 1.2 mph1.9 kmh 30.45 in1031.2 mb - 0.00 in0.0 mm 0.00 in0.0 mm
08:10 PM 35.6°F2.0°C 23.1°F-4.9°C 60% Calm Calm -- 30.44 in1030.8 mb - 0.00 in0.0 mm 0.00 in0.0 mm
08:15 PM 35.7°F2.1°C 23.6°F-4.7°C 61% 1.2 mph N1.9 kmh N 1.2 mph1.9 kmh 30.44 in1030.8 mb - 0.00 in0.0 mm 0.00 in0.0 mm
08:20 PM 35.9°F2.2°C 23.7°F-4.6°C 61% 1.2 mph N1.9 kmh N 3.5 mph5.6 kmh 30.44 in1030.8 mb - 0.00 in0.0 mm 0.00 in0.0 mm
08:25 PM 36.1°F2.3°C 23.9°F-4.5°C 61% Calm Calm -- 30.43 in1030.5 mb - 0.00 in0.0 mm 0.00 in0.0 mm
08:30 PM 36.3°F2.4°C 24.5°F-4.2°C 62% Calm Calm 1.2 mph1.9 kmh 30.44 in1030.8 mb - 0.00 in0.0 mm 0.00 in0.0 mm
08:35 PM 36.4°F2.4°C 24.6°F-4.1°C 62% 1.2 mph N1.9 kmh N 3.5 mph5.6 kmh 30.44 in1030.8 mb - 0.00 in0.0 mm 0.00 in0.0 mm
08:40 PM 36.4°F2.4°C 24.6°F-4.1°C 62% Calm Calm -- 30.44 in1030.8 mb - 0.00 in0.0 mm 0.00 in0.0 mm
08:45 PM 36.5°F2.5°C 25.5°F-3.6°C 64% 1.2 mph N1.9 kmh N -- 30.43 in1030.5 mb - 0.00 in0.0 mm 0.00 in0.0 mm
08:50 PM 36.5°F2.5°C 25.5°F-3.6°C 64% Calm Calm -- 30.43 in1030.5 mb - 0.00 in0.0 mm 0.00 in0.0 mm
08:55 PM 36.4°F2.4°C 25.4°F-3.7°C 64% Calm Calm -- 30.43 in1030.5 mb - 0.00 in0.0 mm 0.00 in0.0 mm
09:00 PM 36.4°F2.4°C 25.7°F-3.5°C 65% Calm Calm -- 30.43 in1030.5 mb - 0.00 in0.0 mm 0.00 in0.0 mm
09:10 PM 36.3°F2.4°C 26.0°F-3.3°C 66% 2.3 mph N3.7 kmh N 3.5 mph5.6 kmh 30.42 in1030.1 mb - 0.00 in0.0 mm 0.00 in0.0 mm
09:15 PM 36.2°F2.3°C 26.3°F-3.2°C 67% Calm Calm -- 30.41 in1029.8 mb - 0.00 in0.0 mm 0.00 in0.0 mm
09:20 PM 36.2°F2.3°C 26.6°F-3.0°C 68% Calm Calm 1.2 mph1.9 kmh 30.41 in1029.8 mb - 0.00 in0.0 mm 0.00 in0.0 mm
09:25 PM 36.1°F2.3°C 26.6°F-3.0°C 68% Calm Calm -- 30.41 in1029.8 mb - 0.00 in0.0 mm 0.00 in0.0 mm
09:30 PM 36.1°F2.3°C 26.6°F-3.0°C 68% 1.2 mph N1.9 kmh N 1.2 mph1.9 kmh 30.41 in1029.8 mb - 0.00 in0.0 mm 0.00 in0.0 mm
09:35 PM 36.1°F2.3°C 26.6°F-3.0°C 68% Calm Calm -- 30.41 in1029.8 mb - 0.00 in0.0 mm 0.00 in0.0 mm
09:40 PM 36.0°F2.2°C 26.5°F-3.1°C 68% 1.2 mph N1.9 kmh N -- 30.41 in1029.8 mb - 0.00 in0.0 mm 0.00 in0.0 mm
09:45 PM 36.1°F2.3°C 26.6°F-3.0°C 68% 2.3 mph N3.7 kmh N 4.6 mph7.4 kmh 30.41 in1029.8 mb - 0.00 in0.0 mm 0.00 in0.0 mm
09:50 PM 36.2°F2.3°C 26.7°F-2.9°C 68% 3.5 mph N5.6 kmh N 5.8 mph9.3 kmh 30.39 in1029.1 mb - 0.00 in0.0 mm 0.00 in0.0 mm
09:55 PM 36.4°F2.4°C 26.8°F-2.9°C 68% 1.2 mph N1.9 kmh N 4.6 mph7.4 kmh 30.38 in1028.8 mb - 0.00 in0.0 mm 0.00 in0.0 mm
10:00 PM 36.5°F2.5°C 26.9°F-2.8°C 68% 4.6 mph N7.4 kmh N 5.8 mph9.3 kmh 30.38 in1028.8 mb - 0.00 in0.0 mm 0.00 in0.0 mm
10:10 PM 36.9°F2.7°C 27.3°F-2.6°C 68% 4.6 mph N7.4 kmh N 5.8 mph9.3 kmh 30.36 in1028.1 mb - 0.00 in0.0 mm 0.00 in0.0 mm
10:15 PM 37.0°F2.8°C 27.4°F-2.6°C 68% 5.8 mph N9.3 kmh N 10.4 mph16.7 kmh 30.36 in1028.1 mb - 0.00 in0.0 mm 0.00 in0.0 mm
10:20 PM 37.1°F2.8°C 27.9°F-2.3°C 69% 4.6 mph N7.4 kmh N 10.4 mph16.7 kmh 30.37 in1028.4 mb - 0.00 in0.0 mm 0.00 in0.0 mm
10:25 PM 37.2°F2.9°C 28.0°F-2.2°C 69% 3.5 mph N5.6 kmh N 4.6 mph7.4 kmh 30.36 in1028.1 mb - 0.00 in0.0 mm 0.00 in0.0 mm
10:30 PM 37.3°F2.9°C 28.7°F-1.8°C 71% 8.1 mph N13.0 kmh N 15.0 mph24.1 kmh 30.36 in1028.1 mb - 0.00 in0.0 mm 0.00 in0.0 mm
10:35 PM 37.2°F2.9°C 29.3°F-1.5°C 73% 5.8 mph N9.3 kmh N 8.1 mph13.0 kmh 30.34 in1027.4 mb - 0.01 in0.3 mm 0.01 in0.3 mm
10:40 PM 37.0°F2.8°C 29.8°F-1.2°C 75% 4.6 mph N7.4 kmh N 16.1 mph25.9 kmh 30.34 in1027.4 mb - 0.00 in0.0 mm 0.01 in0.3 mm
10:45 PM 36.9°F2.7°C 30.0°F-1.1°C 76% 3.5 mph N5.6 kmh N 5.8 mph9.3 kmh 30.34 in1027.4 mb - 0.00 in0.0 mm 0.01 in0.3 mm
10:50 PM 36.7°F2.6°C 29.9°F-1.2°C 76% 2.3 mph N3.7 kmh N 5.8 mph9.3 kmh 30.35 in1027.8 mb - 0.00 in0.0 mm 0.01 in0.3 mm
10:55 PM 36.6°F2.6°C 30.1°F-1.1°C 77% 1.2 mph N1.9 kmh N 4.6 mph7.4 kmh 30.35 in1027.8 mb - 0.00 in0.0 mm 0.01 in0.3 mm
11:00 PM 36.5°F2.5°C 30.0°F-1.1°C 77% 4.6 mph N7.4 kmh N 4.6 mph7.4 kmh 30.35 in1027.8 mb - 0.00 in0.0 mm 0.01 in0.3 mm
11:10 PM 36.4°F2.4°C 30.2°F-1.0°C 78% 3.5 mph N5.6 kmh N 4.6 mph7.4 kmh 30.36 in1028.1 mb - 0.00 in0.0 mm 0.01 in0.3 mm
11:15 PM 36.5°F2.5°C 30.6°F-0.8°C 79% 3.5 mph N5.6 kmh N 4.6 mph7.4 kmh 30.36 in1028.1 mb - 0.00 in0.0 mm 0.01 in0.3 mm
11:20 PM 36.4°F2.4°C 30.5°F-0.8°C 79% 3.5 mph N5.6 kmh N 5.8 mph9.3 kmh 30.36 in1028.1 mb - 0.00 in0.0 mm 0.01 in0.3 mm
11:25 PM 36.4°F2.4°C 30.5°F-0.8°C 79% 3.5 mph N5.6 kmh N 4.6 mph7.4 kmh 30.36 in1028.1 mb - 0.00 in0.0 mm 0.01 in0.3 mm
11:30 PM 36.4°F2.4°C 30.5°F-0.8°C 79% 4.6 mph N7.4 kmh N 5.8 mph9.3 kmh 30.34 in1027.4 mb - 0.00 in0.0 mm 0.01 in0.3 mm
11:35 PM 36.3°F2.4°C 30.4°F-0.9°C 79% 2.3 mph N3.7 kmh N 3.5 mph5.6 kmh 30.35 in1027.8 mb - 0.00 in0.0 mm 0.01 in0.3 mm
11:40 PM 36.4°F2.4°C 30.8°F-0.7°C 80% Calm Calm 1.2 mph1.9 kmh 30.35 in1027.8 mb - 0.00 in0.0 mm 0.01 in0.3 mm
11:45 PM 36.4°F2.4°C 30.8°F-0.7°C 80% 2.3 mph N3.7 kmh N 1.2 mph1.9 kmh 30.36 in1028.1 mb - 0.00 in0.0 mm 0.01 in0.3 mm
11:50 PM 36.4°F2.4°C 30.8°F-0.7°C 80% 2.3 mph N3.7 kmh N 4.6 mph7.4 kmh 30.35 in1027.8 mb - 0.00 in0.0 mm 0.01 in0.3 mm
11:55 PM 36.5°F2.5°C 30.9°F-0.6°C 80% 5.8 mph N9.3 kmh N 15.0 mph24.1 kmh 30.35 in1027.8 mb - 0.00 in0.0 mm 0.01 in0.3 mm